createdAt,value
2018-07-10T00:04:36.436Z,16.10
2018-07-10T00:07:18.124Z,16.00
2018-07-10T00:16:23.751Z,15.70
2018-07-10T00:18:59.139Z,15.60
2018-07-10T00:21:34.845Z,15.40
2018-07-10T00:24:05.995Z,15.30
2018-07-10T00:26:34.811Z,15.30
2018-07-10T00:29:03.767Z,15.30
2018-07-10T00:31:32.755Z,15.30
2018-07-10T00:34:05.207Z,15.40
2018-07-10T00:36:34.127Z,15.40
2018-07-10T00:39:09.272Z,15.50
2018-07-10T00:41:40.315Z,15.50
2018-07-10T00:44:14.259Z,15.40
2018-07-10T00:46:51.315Z,15.40
2018-07-10T00:49:20.188Z,15.30
2018-07-10T00:51:49.023Z,15.30
2018-07-10T00:54:18.843Z,15.20
2018-07-10T00:57:01.259Z,15.10
2018-07-10T00:59:35.243Z,15.00
2018-07-10T01:02:04.129Z,14.90
2018-07-10T01:04:33.023Z,14.90
2018-07-10T01:07:01.931Z,14.90
2018-07-10T01:09:34.167Z,14.90
2018-07-10T01:12:06.680Z,14.90
2018-07-10T01:14:43.363Z,14.90
2018-07-10T01:17:13.247Z,14.80
2018-07-10T01:19:42.131Z,14.90
2018-07-10T01:22:12.911Z,14.90
2018-07-10T01:24:43.747Z,14.90
2018-07-10T01:27:16.099Z,15.00
2018-07-10T01:29:48.183Z,15.00
2018-07-10T01:32:20.863Z,15.00
2018-07-10T01:34:49.619Z,15.00
2018-07-10T01:37:18.519Z,15.00
2018-07-10T01:39:47.433Z,15.10
2018-07-10T01:42:22.025Z,15.10
2018-07-10T01:44:56.867Z,15.10
2018-07-10T01:47:25.763Z,15.10
2018-07-10T01:49:55.659Z,15.10
2018-07-10T01:52:30.194Z,15.10
2018-07-10T01:54:59.056Z,15.10
2018-07-10T01:57:28.307Z,15.10
2018-07-10T01:59:58.195Z,15.20
2018-07-10T02:02:27.103Z,15.20
2018-07-10T02:04:59.107Z,15.20
2018-07-10T02:10:03.391Z,15.10
2018-07-10T02:12:37.279Z,14.90
2018-07-10T02:15:22.199Z,14.80
2018-07-10T02:17:51.104Z,14.80
2018-07-10T02:20:28.283Z,14.80
2018-07-10T02:22:59.718Z,14.80
2018-07-10T02:25:28.595Z,14.80
2018-07-10T02:27:59.479Z,14.70
2018-07-10T02:30:32.195Z,14.60
2018-07-10T02:33:06.813Z,14.50
2018-07-10T02:35:36.580Z,14.40
2018-07-10T02:38:10.382Z,14.40
2018-07-10T02:40:40.223Z,14.40
2018-07-10T02:43:09.991Z,14.40
2018-07-10T02:45:38.847Z,14.40
2018-07-10T02:48:09.647Z,14.30
2018-07-10T02:50:43.234Z,14.30
2018-07-10T02:55:46.415Z,14.20
2018-07-10T02:58:16.322Z,14.20
2018-07-10T03:00:51.091Z,14.10
2018-07-10T03:03:19.952Z,14.00
2018-07-10T03:05:48.760Z,13.90
2018-07-10T03:08:20.727Z,13.90
2018-07-10T03:10:51.619Z,13.80
2018-07-10T03:13:23.809Z,13.80
2018-07-10T03:16:02.703Z,13.60
2018-07-10T03:18:32.930Z,13.40
2018-07-10T03:21:02.755Z,13.20
2018-07-10T03:23:32.647Z,13.00
2018-07-10T03:26:02.548Z,12.90
2018-07-10T03:28:33.367Z,12.80
2018-07-10T03:31:03.251Z,12.80
2018-07-10T03:33:33.146Z,12.80
2018-07-10T03:36:01.991Z,12.80
2018-07-10T03:38:30.843Z,12.90
2018-07-10T03:40:59.694Z,13.00
2018-07-10T03:43:30.490Z,13.10
2018-07-10T03:46:02.939Z,13.10
2018-07-10T03:48:32.802Z,13.10
2018-07-10T03:51:14.007Z,13.20
2018-07-10T03:53:43.911Z,13.20
2018-07-10T03:56:12.759Z,13.20
2018-07-10T03:58:42.603Z,13.20
2018-07-10T04:01:28.481Z,13.20
2018-07-10T04:04:03.811Z,13.30
2018-07-10T04:06:32.699Z,13.40
2018-07-10T04:15:07.778Z,13.70
2018-07-10T04:17:59.179Z,13.80
2018-07-10T04:20:42.643Z,13.80
2018-07-10T04:23:13.412Z,13.90
2018-07-10T04:28:47.325Z,14.00
2018-07-10T04:31:28.782Z,14.10
2018-07-10T04:33:59.551Z,14.30
2018-07-10T04:36:42.234Z,14.30
2018-07-10T04:39:28.210Z,14.30
2018-07-10T04:42:41.044Z,14.30
2018-07-10T04:45:13.358Z,14.40
2018-07-10T04:47:46.526Z,14.30
2018-07-10T04:50:31.394Z,14.40
2018-07-10T04:53:07.467Z,14.40
2018-07-10T04:55:42.063Z,14.60
2018-07-10T04:58:19.620Z,14.90
2018-07-10T05:00:57.446Z,15.10
2018-07-10T05:03:33.886Z,15.30
2018-07-10T05:06:22.443Z,15.50
2018-07-10T05:08:56.053Z,15.70
2018-07-10T05:11:29.226Z,15.90
2018-07-10T05:14:02.810Z,16.10
2018-07-10T05:16:31.579Z,16.30
2018-07-10T05:19:10.347Z,16.40
2018-07-10T05:21:57.770Z,16.50
2018-07-10T05:24:41.187Z,16.60
2018-07-10T05:27:10.977Z,16.60
2018-07-10T05:29:56.603Z,16.60
2018-07-10T05:32:32.831Z,16.50
2018-07-10T05:35:03.679Z,16.50
2018-07-10T05:37:36.183Z,16.50
2018-07-10T05:43:16.558Z,16.40
2018-07-10T05:45:48.759Z,16.40
2018-07-10T05:48:24.156Z,16.40
2018-07-10T05:53:49.264Z,16.40
2018-07-10T05:56:19.079Z,16.50
2018-07-10T05:58:48.883Z,16.70
2018-07-10T06:01:17.539Z,16.70
2018-07-10T06:03:52.079Z,16.80
2018-07-10T06:09:10.191Z,16.80
2018-07-10T06:11:38.983Z,16.80
2018-07-10T06:14:08.848Z,16.90
2018-07-10T06:16:38.663Z,16.90
2018-07-10T06:19:19.767Z,16.90
2018-07-10T06:21:52.590Z,16.90
2018-07-10T06:24:29.323Z,16.90
2018-07-10T06:27:01.299Z,17.00
2018-07-10T06:29:41.115Z,17.10
2018-07-10T06:32:20.587Z,17.10
2018-07-10T06:34:54.417Z,17.20
2018-07-10T06:37:30.291Z,17.40
2018-07-10T06:42:46.718Z,17.50
2018-07-10T06:45:15.566Z,17.60
2018-07-10T06:48:03.858Z,17.70
2018-07-10T06:50:35.524Z,17.80
2018-07-10T06:53:26.749Z,17.90
2018-07-10T06:55:58.724Z,17.80
2018-07-10T06:58:32.938Z,17.70
2018-07-10T07:01:07.307Z,17.70
2018-07-10T07:03:40.803Z,17.60
2018-07-10T07:06:13.098Z,17.70
2018-07-10T07:08:42.943Z,17.90
2018-07-10T07:11:18.222Z,18.20
2018-07-10T07:13:49.098Z,18.30
2018-07-10T07:16:30.639Z,18.70
2018-07-10T07:19:00.394Z,18.90
2018-07-10T07:21:32.279Z,19.20
2018-07-10T07:24:02.019Z,19.60
2018-07-10T07:26:30.750Z,20.20
2018-07-10T07:34:48.287Z,21.50
2018-07-10T07:37:19.046Z,21.20
2018-07-10T07:39:47.818Z,21.10
2018-07-10T07:42:17.658Z,21.00
2018-07-10T07:44:47.050Z,21.20
2018-07-10T07:47:16.182Z,21.70
2018-07-10T07:49:50.813Z,22.00
2018-07-10T07:52:31.144Z,22.10
2018-07-10T07:55:02.131Z,22.30
2018-07-10T07:57:32.402Z,22.50
2018-07-10T08:00:06.339Z,22.60
2018-07-10T08:02:36.238Z,22.60
2018-07-10T08:05:08.128Z,22.40
2018-07-10T08:07:41.002Z,21.20
2018-07-10T08:10:09.770Z,21.30
2018-07-10T08:12:41.662Z,21.40
2018-07-10T08:15:13.750Z,21.80
2018-07-10T08:17:42.606Z,22.20
2018-07-10T08:20:18.458Z,21.80
2018-07-10T08:22:56.554Z,21.60
2018-07-10T08:25:26.290Z,21.70
2018-07-10T08:30:32.354Z,21.20
2018-07-10T08:33:04.526Z,21.50
2018-07-10T08:35:34.302Z,21.70
2018-07-10T08:41:17.198Z,21.10
2018-07-10T08:46:40.126Z,21.30
2018-07-10T08:49:11.723Z,21.30
2018-07-10T08:51:40.714Z,21.30
2018-07-10T08:54:09.566Z,21.40
2018-07-10T08:56:38.342Z,21.10
2018-07-10T08:59:07.090Z,20.90
2018-07-10T09:01:35.818Z,20.40
2018-07-10T09:04:07.954Z,20.40
2018-07-10T09:06:38.726Z,20.10
2018-07-10T09:09:07.462Z,20.10
2018-07-10T09:11:38.241Z,20.20
2018-07-10T09:14:17.911Z,20.20
2018-07-10T09:16:46.846Z,20.30
2018-07-10T09:19:26.821Z,20.30
2018-07-10T09:22:15.530Z,20.20
2018-07-10T09:24:48.186Z,19.90
2018-07-10T09:27:19.990Z,19.20
2018-07-10T09:30:06.370Z,18.80
2018-07-10T09:32:51.530Z,18.80
2018-07-10T09:35:26.766Z,18.60
2018-07-10T09:41:02.383Z,18.20
2018-07-10T09:43:31.278Z,18.00
2018-07-10T09:46:04.054Z,17.70
2018-07-10T09:48:32.882Z,17.60
2018-07-10T09:51:03.607Z,17.40
2018-07-10T09:53:49.234Z,17.30
2018-07-10T09:56:29.842Z,17.20
2018-07-10T09:59:04.579Z,17.00
2018-07-10T10:01:41.602Z,17.10
2018-07-10T10:04:10.450Z,17.30
2018-07-10T10:06:42.838Z,17.60
2018-07-10T10:09:19.110Z,17.90
2018-07-10T10:11:55.489Z,18.50
2018-07-10T10:14:30.865Z,19.20
2018-07-10T10:16:59.618Z,19.70
2018-07-10T10:19:30.362Z,20.10
2018-07-10T10:21:59.117Z,20.50
2018-07-10T10:24:31.442Z,20.80
2018-07-10T10:27:01.487Z,20.90
2018-07-10T10:29:30.221Z,20.80
2018-07-10T10:31:58.951Z,20.60
2018-07-10T10:34:27.729Z,20.70
2018-07-10T10:37:09.162Z,20.90
2018-07-10T10:39:58.165Z,21.50
2018-07-10T10:42:27.473Z,21.90
2018-07-10T10:45:04.350Z,21.70
2018-07-10T10:47:34.346Z,21.80
2018-07-10T10:50:10.068Z,21.60
2018-07-10T10:52:39.805Z,21.40
2018-07-10T10:55:08.551Z,20.90
2018-07-10T10:57:39.741Z,19.40
2018-07-10T11:03:07.160Z,17.60
2018-07-10T11:05:40.461Z,17.60
2018-07-10T11:08:18.065Z,17.60
2018-07-10T11:10:49.018Z,17.60
2018-07-10T11:13:23.509Z,17.60
2018-07-10T11:15:52.239Z,17.60
2018-07-10T11:18:38.837Z,17.30
2018-07-10T11:21:28.494Z,17.20
2018-07-10T11:24:04.665Z,17.20
2018-07-10T11:26:48.146Z,17.60
2018-07-10T11:29:27.505Z,18.10
2018-07-10T11:32:01.074Z,18.20
2018-07-10T11:34:29.837Z,18.40
2018-07-10T11:36:58.653Z,18.50
2018-07-10T11:39:31.026Z,18.50
2018-07-10T11:42:05.714Z,18.40
2018-07-10T11:44:38.709Z,18.10
2018-07-10T11:47:15.266Z,17.90
2018-07-10T11:49:48.863Z,17.70
2018-07-10T11:52:29.061Z,17.60
2018-07-10T11:55:03.966Z,17.40
2018-07-10T11:57:37.655Z,17.20
2018-07-10T12:00:13.917Z,17.10
2018-07-10T12:02:46.981Z,17.20
2018-07-10T12:07:58.518Z,17.30
2018-07-10T12:10:29.613Z,17.10
2018-07-10T12:13:09.369Z,16.90
2018-07-10T12:15:42.242Z,16.70
2018-07-10T12:18:16.590Z,16.60
2018-07-10T12:20:45.483Z,16.60
2018-07-10T12:23:27.918Z,16.80
2018-07-10T12:26:00.365Z,16.70
2018-07-10T12:28:30.121Z,16.80
2018-07-10T12:31:03.297Z,16.80
2018-07-10T12:33:48.850Z,16.80
2018-07-10T12:36:25.337Z,16.70
2018-07-10T12:39:10.706Z,16.80
2018-07-10T12:41:57.567Z,16.90
2018-07-10T12:44:30.526Z,16.90
2018-07-10T12:47:06.966Z,17.20
2018-07-10T12:49:49.253Z,17.40
2018-07-10T12:52:18.121Z,17.70
2018-07-10T12:54:58.749Z,17.80
2018-07-10T12:57:33.049Z,18.00
2018-07-10T13:00:07.497Z,18.20
2018-07-10T13:05:34.309Z,18.40
2018-07-10T13:08:05.130Z,18.50
2018-07-10T13:10:33.991Z,18.70
2018-07-10T13:13:04.866Z,19.20
2018-07-10T13:15:34.622Z,19.90
2018-07-10T13:18:07.833Z,20.70
2018-07-10T13:20:39.726Z,21.50
2018-07-10T13:23:08.582Z,22.50
2018-07-10T13:25:50.742Z,22.90
2018-07-10T13:28:20.489Z,23.10
2018-07-10T13:30:50.759Z,24.40
2018-07-10T13:33:21.570Z,25.30
2018-07-10T13:35:57.243Z,25.00
2018-07-10T13:38:26.926Z,25.10
2018-07-10T13:40:58.906Z,24.90
2018-07-10T13:43:34.470Z,25.00
2018-07-10T13:46:04.235Z,26.00
2018-07-10T13:48:33.978Z,28.70
2018-07-10T13:51:06.499Z,29.00
2018-07-10T13:56:29.478Z,24.80
2018-07-10T13:58:59.390Z,22.10
2018-07-10T14:01:29.118Z,20.90
2018-07-10T14:04:05.741Z,20.50
2018-07-10T14:06:34.602Z,20.50
2018-07-10T14:09:04.538Z,21.10
2018-07-10T14:11:33.606Z,22.10
2018-07-10T14:14:06.951Z,23.20
2018-07-10T14:16:41.133Z,23.60
2018-07-10T14:19:17.550Z,24.20
2018-07-10T14:27:10.701Z,23.50
2018-07-10T14:32:32.918Z,22.90
2018-07-10T14:35:26.658Z,22.20
2018-07-10T14:37:59.558Z,21.10
2018-07-10T14:40:30.678Z,19.60
2018-07-10T14:43:04.763Z,18.90
2018-07-10T14:45:33.861Z,18.30
2018-07-10T14:48:05.534Z,18.10
2018-07-10T14:50:40.088Z,18.40
2018-07-10T14:53:18.645Z,18.90
2018-07-10T14:55:53.169Z,19.30
2018-07-10T14:58:23.030Z,19.90
2018-07-10T15:00:52.749Z,20.90
2018-07-10T15:03:33.873Z,20.50
2018-07-10T15:06:14.318Z,20.20
2018-07-10T15:08:43.173Z,19.90
2018-07-10T15:11:18.353Z,19.90
2018-07-10T15:13:56.893Z,19.60
2018-07-10T15:16:34.813Z,21.00
2018-07-10T15:19:26.472Z,22.80
2018-07-10T15:22:05.589Z,23.70
2018-07-10T15:24:37.857Z,24.60
2018-07-10T15:27:07.641Z,25.90
2018-07-10T15:29:36.445Z,25.30
2018-07-10T15:32:13.817Z,25.10
2018-07-10T15:34:48.906Z,26.20
2018-07-10T15:37:18.752Z,26.00
2018-07-10T15:39:52.296Z,25.80
2018-07-10T15:42:28.555Z,26.10
2018-07-10T15:44:57.304Z,25.60
2018-07-10T15:47:28.060Z,26.10
2018-07-10T15:50:00.169Z,24.30
2018-07-10T15:52:28.909Z,23.80
2018-07-10T15:55:16.890Z,22.20
2018-07-10T15:57:46.662Z,21.20
2018-07-10T16:00:16.508Z,20.80
2018-07-10T16:05:27.504Z,20.40
2018-07-10T16:08:10.412Z,20.50
2018-07-10T16:13:28.652Z,20.70
2018-07-10T16:15:59.480Z,20.30
2018-07-10T16:18:29.560Z,20.20
2018-07-10T16:21:11.036Z,20.00
2018-07-10T16:23:44.882Z,19.70
2018-07-10T16:26:22.658Z,19.40
2018-07-10T16:28:56.320Z,19.40
2018-07-10T16:31:25.187Z,19.60
2018-07-10T16:34:01.496Z,19.80
2018-07-10T16:36:30.236Z,20.00
2018-07-10T16:38:58.980Z,19.90
2018-07-10T16:41:33.232Z,20.00
2018-07-10T16:44:04.676Z,20.10
2018-07-10T16:46:33.741Z,20.40
2018-07-10T16:49:10.096Z,20.80
2018-07-10T16:53:55.585Z,21.70
2018-07-10T16:56:24.456Z,22.10
2018-07-10T16:58:54.384Z,22.80
2018-07-10T17:01:24.420Z,22.10
2018-07-10T17:04:00.680Z,21.20
2018-07-10T17:06:31.412Z,21.90
2018-07-10T17:09:00.220Z,21.30
2018-07-10T17:11:29.020Z,20.40
2018-07-10T17:14:02.137Z,19.90
2018-07-10T17:19:26.038Z,18.70
2018-07-10T17:24:24.488Z,18.30
2018-07-10T17:26:53.312Z,18.10
2018-07-10T17:29:22.108Z,18.10
2018-07-10T17:31:50.964Z,18.10
2018-07-10T17:34:26.364Z,18.00
2018-07-10T17:36:55.256Z,17.90
2018-07-10T17:39:28.932Z,18.00
2018-07-10T17:42:00.884Z,17.90
2018-07-10T17:47:06.924Z,18.60
2018-07-10T17:49:39.904Z,19.00
2018-07-10T17:52:09.756Z,19.10
2018-07-10T17:54:39.549Z,19.20
2018-07-10T17:57:09.312Z,19.70
2018-07-10T17:59:38.120Z,20.00
2018-07-10T18:02:09.116Z,19.80
2018-07-10T18:04:37.975Z,19.80
2018-07-10T18:07:06.752Z,20.00
2018-07-10T18:09:46.008Z,20.20
2018-07-10T18:12:18.484Z,20.40
2018-07-10T18:14:56.826Z,20.70
2018-07-10T18:17:25.739Z,20.60
2018-07-10T18:19:54.624Z,19.80
2018-07-10T18:22:24.380Z,19.00
2018-07-10T18:24:53.203Z,18.30
2018-07-10T18:27:25.164Z,17.80
2018-07-10T18:29:54.964Z,17.30
2018-07-10T18:32:25.820Z,16.90
2018-07-10T18:34:54.596Z,16.60
2018-07-10T18:37:27.376Z,16.40
2018-07-10T18:39:56.115Z,16.20
2018-07-10T18:42:26.026Z,16.00
2018-07-10T18:44:56.915Z,15.80
2018-07-10T18:49:55.459Z,15.50
2018-07-10T18:52:33.404Z,15.20
2018-07-10T18:55:02.560Z,15.10
2018-07-10T19:00:07.252Z,14.90
2018-07-10T19:02:55.968Z,14.70
2018-07-10T19:05:27.788Z,14.30
2018-07-10T19:07:56.536Z,14.20
2018-07-10T19:10:27.463Z,14.10
2018-07-10T19:12:56.144Z,14.10
2018-07-10T19:18:11.440Z,13.80
2018-07-10T19:20:47.899Z,13.60
2018-07-10T19:23:26.119Z,13.50
2018-07-10T19:25:55.128Z,13.40
2018-07-10T19:31:13.028Z,13.20
2018-07-10T19:33:42.728Z,13.20
2018-07-10T19:36:15.072Z,13.10
2018-07-10T19:38:43.903Z,12.90
2018-07-10T19:41:16.272Z,12.80
2018-07-10T19:43:45.036Z,12.70
2018-07-10T19:46:19.380Z,12.60
2018-07-10T19:48:50.298Z,12.50
2018-07-10T19:51:25.620Z,12.40
2018-07-10T19:54:14.853Z,12.30
2018-07-10T19:56:55.456Z,12.10
2018-07-10T19:59:27.940Z,12.00
2018-07-10T20:02:01.048Z,12.00
2018-07-10T20:05:03.522Z,11.90
2018-07-10T20:07:37.544Z,11.80
2018-07-10T20:10:24.995Z,11.70
2018-07-10T20:13:00.680Z,11.70
2018-07-10T20:15:31.636Z,11.60
2018-07-10T20:19:15.861Z,11.60
2018-07-10T20:22:23.964Z,11.40
2018-07-10T20:27:36.228Z,11.10
2018-07-10T20:31:15.276Z,11.10
2018-07-10T20:34:02.348Z,11.00
2018-07-10T20:36:32.219Z,10.90
2018-07-10T20:39:04.772Z,10.90
2018-07-10T20:41:47.188Z,11.00
2018-07-10T20:44:21.985Z,11.00
2018-07-10T20:47:03.293Z,10.90
2018-07-10T20:49:53.160Z,10.90
2018-07-10T20:52:26.976Z,10.90
2018-07-10T20:55:00.083Z,11.00
2018-07-10T20:57:40.940Z,10.90
2018-07-10T21:00:13.109Z,10.80
2018-07-10T21:02:52.724Z,10.70
2018-07-10T21:05:24.900Z,10.70
2018-07-10T21:08:00.664Z,10.70
2018-07-10T21:10:41.332Z,10.60
2018-07-10T21:13:19.732Z,10.50
2018-07-10T21:16:02.060Z,10.50
2018-07-10T21:18:45.480Z,10.40
2018-07-10T21:21:23.824Z,10.40
2018-07-10T21:27:39.876Z,10.40
2018-07-10T21:30:19.124Z,10.20
2018-07-10T21:33:02.184Z,10.20
2018-07-10T21:35:40.786Z,10.10
2018-07-10T21:38:16.564Z,10.10
2018-07-10T21:46:16.628Z,10.00
2018-07-10T21:49:00.676Z,10.00
2018-07-10T21:51:35.224Z,9.70
2018-07-10T21:54:05.028Z,9.60
2018-07-10T21:56:33.975Z,9.60
2018-07-10T21:59:03.745Z,9.60
2018-07-10T22:02:03.488Z,9.60
2018-07-10T22:04:37.074Z,9.60
2018-07-10T22:07:19.876Z,9.60
2018-07-10T22:09:51.652Z,9.70
2018-07-10T22:12:21.156Z,9.70
2018-07-10T22:14:49.987Z,9.60
2018-07-10T22:17:25.504Z,9.60
2018-07-10T22:19:55.494Z,9.60
2018-07-10T22:22:29.887Z,9.60
2018-07-10T22:25:03.687Z,9.60
2018-07-10T22:27:41.262Z,9.60
2018-07-10T22:30:19.299Z,9.60
2018-07-10T22:32:57.811Z,9.60
2018-07-10T22:35:36.247Z,9.70
2018-07-10T22:38:12.811Z,9.70
2018-07-10T22:40:45.263Z,9.70
2018-07-10T22:43:16.119Z,9.70
2018-07-10T22:45:48.167Z,9.60
2018-07-10T22:48:26.859Z,9.60
2018-07-10T22:50:55.667Z,9.50
2018-07-10T22:53:24.555Z,9.30
2018-07-10T22:55:59.191Z,9.20
2018-07-10T22:58:28.123Z,9.20
2018-07-10T23:00:57.963Z,9.20
2018-07-10T23:03:26.820Z,9.10
2018-07-10T23:05:55.747Z,8.90
2018-07-10T23:08:27.768Z,8.90
2018-07-10T23:11:02.515Z,8.90
2018-07-10T23:13:45.451Z,8.90
2018-07-10T23:16:20.855Z,8.90
2018-07-10T23:19:08.779Z,8.90
2018-07-10T23:21:39.449Z,8.90
2018-07-10T23:24:10.511Z,8.90
2018-07-10T23:26:45.951Z,8.80
2018-07-10T23:31:50.783Z,8.80
2018-07-10T23:34:23.211Z,8.80
2018-07-10T23:36:57.299Z,8.80
2018-07-10T23:39:33.991Z,8.90
2018-07-10T23:42:10.211Z,8.80
2018-07-10T23:44:50.750Z,8.70
2018-07-10T23:47:29.107Z,8.80
2018-07-10T23:50:01.838Z,8.80
2018-07-10T23:52:44.947Z,8.80
2018-07-10T23:55:16.887Z,8.80
2018-07-10T23:57:48.027Z,8.90
